Time;durP1;ratioP1;P1;durP2;ratioP2;P2;SDS_P1;SDS_P2;PMS_P1;PMS_P2;Temp;Humidity;BMP_temperature;BMP_pressure;BME280_temperature;BME280_humidity;BME280_pressure;Samples;Min_cycle;Max_cycle;Signal;HPM_P1;HPM_P2
2023/01/29 00:00:21;;;;;;;4.57;2.20;;;;;;;-3.82;100.00;102028.00;5025854;28;20470;-70
2023/01/29 00:02:48;;;;;;;5.07;2.77;;;;;;;-3.86;100.00;102028.63;5026620;28;20684;-70
2023/01/29 00:05:15;;;;;;;4.33;3.23;;;;;;;-3.90;100.00;102029.28;5030161;28;20243;-70
2023/01/29 00:07:41;;;;;;;4.93;3.17;;;;;;;-3.94;100.00;102022.22;5024986;28;20969;-71
2023/01/29 00:10:11;;;;;;;4.57;2.80;;;;;;;-4.02;100.00;102014.19;5022177;28;20862;-71
2023/01/29 00:12:37;;;;;;;5.10;3.17;;;;;;;-4.04;100.00;102005.56;5027807;28;20677;-71
2023/01/29 00:15:05;;;;;;;4.17;2.83;;;;;;;-4.10;100.00;102008.63;5026085;28;20477;-71
2023/01/29 00:17:31;;;;;;;8.53;3.43;;;;;;;-4.16;100.00;102002.34;5024379;28;20454;-71
2023/01/29 00:19:58;;;;;;;8.70;3.77;;;;;;;-4.24;100.00;102000.25;5023509;28;20450;-71
2023/01/29 00:22:24;;;;;;;5.97;2.93;;;;;;;-4.27;100.00;101999.19;5024159;28;20911;-71
2023/01/29 00:24:51;;;;;;;3.87;2.93;;;;;;;-4.30;100.00;101999.03;5026324;28;20473;-73
2023/01/29 00:27:18;;;;;;;6.53;3.43;;;;;;;-4.35;100.00;101997.88;5025800;28;20804;-73
2023/01/29 00:30:07;;;;;;;5.83;2.93;;;;;;;-4.40;100.00;102001.06;5031571;28;20477;-74
2023/01/29 00:32:32;;;;;;;6.93;3.37;;;;;;;-4.43;100.00;102010.19;5043993;28;20513;-73
2023/01/29 00:34:58;;;;;;;6.37;3.33;;;;;;;-4.47;100.00;102004.00;5018876;28;20857;-73
2023/01/29 00:37:24;;;;;;;3.40;2.67;;;;;;;-4.52;100.00;102008.00;5025694;28;20468;-73
2023/01/29 00:39:51;;;;;;;5.77;2.67;;;;;;;-4.55;100.00;102017.13;5022466;28;20542;-73
2023/01/29 00:45:04;;;;;;;6.43;2.97;;;;;;;-4.67;100.00;102002.88;5027186;28;20464;-73
2023/01/29 00:47:32;;;;;;;4.63;3.23;;;;;;;-4.69;100.00;101998.50;5027323;28;20456;-72
2023/01/29 00:49:58;;;;;;;4.93;3.30;;;;;;;-4.72;100.00;102005.97;5016374;28;20479;-73
2023/01/29 00:52:25;;;;;;;4.73;3.37;;;;;;;-4.75;100.00;102004.09;5025003;28;20468;-73
2023/01/29 00:54:52;;;;;;;4.23;3.40;;;;;;;-4.79;100.00;102005.59;5020616;28;20821;-73
2023/01/29 00:57:20;;;;;;;6.30;3.37;;;;;;;-4.79;100.00;102002.16;5028137;28;20758;-73
2023/01/29 00:59:47;;;;;;;5.90;3.20;;;;;;;-4.85;100.00;101984.88;5026025;28;20450;-73
2023/01/29 01:05:17;;;;;;;5.10;3.10;;;;;;;-4.88;100.00;101982.16;4889015;29;1029826;-73
2023/01/29 01:07:44;;;;;;;3.60;2.80;;;;;;;-4.89;100.00;101980.41;4926615;29;20471;-73
2023/01/29 01:10:23;;;;;;;8.40;3.03;;;;;;;-4.90;100.00;101976.09;4979100;28;20480;-73
2023/01/29 01:12:54;;;;;;;5.13;2.70;;;;;;;-4.93;100.00;101973.38;5023636;28;20451;-74
2023/01/29 01:15:22;;;;;;;6.47;3.33;;;;;;;-4.96;100.00;101969.00;5022999;28;20475;-72
2023/01/29 01:17:52;;;;;;;7.00;3.37;;;;;;;-4.97;100.00;101971.44;5027551;28;20456;-73
2023/01/29 01:20:19;;;;;;;3.47;2.70;;;;;;;-4.94;100.00;101971.63;5027732;28;20459;-73
2023/01/29 01:22:45;;;;;;;4.53;3.40;;;;;;;-4.97;100.00;101968.91;5024154;28;20460;-72
2023/01/29 01:25:11;;;;;;;4.67;3.33;;;;;;;-4.99;100.00;101967.94;5023381;28;20492;-73
2023/01/29 01:27:39;;;;;;;5.67;3.10;;;;;;;-5.05;100.00;101968.44;5023545;28;20467;-73
2023/01/29 01:30:11;;;;;;;3.73;3.30;;;;;;;-5.05;100.00;101967.56;5027090;28;20503;-73
2023/01/29 01:32:37;;;;;;;5.20;3.40;;;;;;;-5.09;100.00;101971.59;5031904;28;20466;-73
2023/01/29 01:35:05;;;;;;;4.90;3.57;;;;;;;-5.07;100.00;101964.06;5021798;28;20479;-73
2023/01/29 01:37:32;;;;;;;5.30;3.33;;;;;;;-5.08;100.00;101957.22;5017918;28;20473;-72
2023/01/29 01:39:58;;;;;;;3.87;3.20;;;;;;;-5.09;100.00;101951.25;5026508;28;20487;-73
2023/01/29 01:42:29;;;;;;;3.63;3.03;;;;;;;-5.10;100.00;101959.69;5026463;28;20472;-73
2023/01/29 01:45:00;;;;;;;3.37;2.93;;;;;;;-5.05;100.00;101957.41;5021392;28;20467;-73
2023/01/29 01:47:36;;;;;;;3.27;2.93;;;;;;;-5.03;100.00;101945.63;5023135;28;20538;-72
2023/01/29 01:50:09;;;;;;;4.73;3.23;;;;;;;-5.02;100.00;101944.88;5020139;28;20473;-73
2023/01/29 01:52:38;;;;;;;4.30;2.90;;;;;;;-5.03;100.00;101946.53;5025083;28;20455;-73
2023/01/29 01:55:06;;;;;;;4.70;3.17;;;;;;;-5.07;100.00;101939.50;5024210;28;20491;-72
2023/01/29 01:57:33;;;;;;;3.50;3.13;;;;;;;-5.10;100.00;101948.63;5023130;28;20461;-73
2023/01/29 02:00:10;;;;;;;5.97;3.43;;;;;;;-5.12;100.00;101953.59;5040079;28;20461;-72
2023/01/29 02:11:08;;;;;;;4.43;3.50;;;;;;;-5.24;100.00;101937.63;5042079;28;20497;-73
2023/01/29 02:13:36;;;;;;;4.17;3.20;;;;;;;-5.25;100.00;101944.38;5025519;28;20458;-72
2023/01/29 02:16:05;;;;;;;5.53;3.70;;;;;;;-5.26;100.00;101949.38;5022537;28;21047;-72
2023/01/29 02:18:36;;;;;;;7.73;3.40;;;;;;;-5.29;100.00;101939.91;5020854;28;20455;-72
2023/01/29 02:21:28;;;;;;;5.03;3.70;;;;;;;-5.28;100.00;101945.88;5019144;28;20879;-72
2023/01/29 02:24:10;;;;;;;10.07;4.23;;;;;;;-5.25;100.00;101954.56;5019949;28;20517;-72
2023/01/29 02:26:47;;;;;;;3.83;3.17;;;;;;;-5.22;100.00;101944.56;5036800;28;20483;-72
2023/01/29 02:29:22;;;;;;;4.20;3.57;;;;;;;-5.24;100.00;101948.69;5023743;28;20556;-72
2023/01/29 02:31:56;;;;;;;6.43;3.73;;;;;;;-5.21;100.00;101946.31;5043103;28;20917;-72
2023/01/29 02:37:26;;;;;;;5.07;4.13;;;;;;;-5.05;100.00;101949.75;5022057;28;20452;-72
2023/01/29 02:40:00;;;;;;;5.03;3.93;;;;;;;-4.91;100.00;101946.34;5004321;28;20548;-72
2023/01/29 02:42:35;;;;;;;6.43;4.00;;;;;;;-4.80;100.00;101946.97;5021298;28;21071;-72
2023/01/29 02:45:11;;;;;;;7.50;4.60;;;;;;;-4.68;100.00;101945.13;5023768;28;21004;-72
2023/01/29 02:47:44;;;;;;;6.47;3.93;;;;;;;-4.59;100.00;101938.03;5023123;28;20863;-72
2023/01/29 02:50:17;;;;;;;9.07;4.67;;;;;;;-4.49;100.00;101934.31;5040877;28;20460;-72
2023/01/29 02:52:49;;;;;;;5.97;4.13;;;;;;;-4.40;100.00;101939.94;5037107;28;20452;-72
2023/01/29 02:55:20;;;;;;;7.43;4.33;;;;;;;-4.29;100.00;101948.19;5036831;28;21014;-72
2023/01/29 02:57:56;;;;;;;5.57;4.07;;;;;;;-4.23;100.00;101948.50;5004585;28;20835;-73
2023/01/29 03:00:27;;;;;;;5.97;4.43;;;;;;;-4.12;100.00;101943.13;5018556;28;20891;-72
2023/01/29 03:03:00;;;;;;;7.17;4.50;;;;;;;-4.10;100.00;101933.88;5020836;28;20461;-72
2023/01/29 03:05:30;;;;;;;7.17;4.90;;;;;;;-4.03;100.00;101934.31;5020612;28;21016;-73
2023/01/29 03:08:03;;;;;;;9.90;5.00;;;;;;;-3.98;100.00;101936.22;5035710;28;20912;-72
2023/01/29 03:10:39;;;;;;;7.00;5.07;;;;;;;-3.94;100.00;101930.50;5036864;28;20496;-72
2023/01/29 03:13:10;;;;;;;6.50;4.53;;;;;;;-3.90;100.00;101930.75;5022843;28;20827;-72
2023/01/29 03:15:46;;;;;;;5.10;3.90;;;;;;;-3.84;100.00;101925.09;5038643;28;20888;-72
2023/01/29 03:18:27;;;;;;;7.27;4.70;;;;;;;-3.78;100.00;101933.09;5033219;28;20460;-72
2023/01/29 03:21:02;;;;;;;6.47;4.93;;;;;;;-3.75;100.00;101929.81;5023888;28;20456;-72
2023/01/29 03:32:06;;;;;;;5.47;4.10;;;;;;;-3.59;100.00;101928.94;5020540;28;20211;-72
2023/01/29 03:34:42;;;;;;;6.77;4.17;;;;;;;-3.56;100.00;101926.56;5022497;28;20797;-72
2023/01/29 03:37:17;;;;;;;6.93;4.93;;;;;;;-3.52;100.00;101920.81;5026210;28;20200;-72
2023/01/29 03:39:44;;;;;;;6.07;4.20;;;;;;;-3.48;100.00;101913.41;5036527;28;20486;-72
2023/01/29 03:42:16;;;;;;;8.63;4.80;;;;;;;-3.46;100.00;101908.41;5022744;28;20192;-73
2023/01/29 03:44:52;;;;;;;7.37;3.90;;;;;;;-3.44;100.00;101911.91;5040704;28;20700;-73
2023/01/29 03:47:41;;;;;;;5.87;4.43;;;;;;;-3.44;100.00;101905.13;5021955;28;20199;-73
2023/01/29 03:50:17;;;;;;;5.93;4.30;;;;;;;-3.41;100.00;101906.97;5020762;28;20287;-72
2023/01/29 03:52:49;;;;;;;5.70;4.17;;;;;;;-3.39;100.00;101917.22;4999832;28;20218;-72
2023/01/29 03:55:20;;;;;;;6.77;4.10;;;;;;;-3.38;100.00;101906.22;5021598;28;20228;-73
2023/01/29 03:57:55;;;;;;;5.37;4.03;;;;;;;-3.36;100.00;101914.84;5021110;28;20227;-73
2023/01/29 04:00:28;;;;;;;5.83;4.13;;;;;;;-3.33;100.00;101910.75;5017544;28;20203;-72
2023/01/29 04:03:09;;;;;;;6.70;3.90;;;;;;;-3.31;100.00;101908.28;5019498;28;20194;-72
2023/01/29 04:05:45;;;;;;;7.83;4.00;;;;;;;-3.31;100.00;101909.16;5042933;28;20223;-73
2023/01/29 04:08:26;;;;;;;5.87;4.30;;;;;;;-3.28;100.00;101895.69;5035199;28;20275;-73
2023/01/29 04:10:56;;;;;;;5.47;3.40;;;;;;;-3.29;100.00;101886.28;5019831;28;20592;-73
2023/01/29 04:13:24;;;;;;;5.53;3.97;;;;;;;-3.26;100.00;101884.75;5025047;28;20204;-73
2023/01/29 04:15:57;;;;;;;4.57;3.60;;;;;;;-3.26;100.00;101889.88;5027445;28;20219;-72
2023/01/29 04:18:46;;;;;;;5.17;3.50;;;;;;;-3.24;100.00;101895.94;5041152;28;20374;-72
2023/01/29 04:21:14;;;;;;;4.27;3.70;;;;;;;-3.22;100.00;101900.22;5026173;28;20700;-73
2023/01/29 04:23:40;;;;;;;4.67;3.60;;;;;;;-3.20;100.00;101889.31;5021728;28;20292;-73
2023/01/29 04:26:24;;;;;;;6.60;3.60;;;;;;;-3.20;100.00;101883.31;5015718;28;20208;-71
2023/01/29 04:29:02;;;;;;;6.93;3.73;;;;;;;-3.18;100.00;101874.97;5037154;28;20208;-70
2023/01/29 04:31:34;;;;;;;4.87;3.80;;;;;;;-3.18;100.00;101868.97;5038311;28;20207;-70
2023/01/29 04:34:16;;;;;;;5.00;3.67;;;;;;;-3.17;100.00;101863.06;5014683;28;20197;-70
2023/01/29 04:36:56;;;;;;;4.57;3.67;;;;;;;-3.15;100.00;101864.00;5038243;28;20258;-70
2023/01/29 04:39:27;;;;;;;4.97;3.40;;;;;;;-3.14;100.00;101850.47;5023254;28;20218;-70
2023/01/29 04:41:59;;;;;;;3.77;3.10;;;;;;;-3.14;100.00;101846.22;5024763;28;20232;-71
2023/01/29 04:44:35;;;;;;;4.63;3.33;;;;;;;-3.12;100.00;101851.41;5022448;28;20198;-71
2023/01/29 04:47:11;;;;;;;5.07;3.57;;;;;;;-3.13;100.00;101849.66;5024307;28;20202;-71
2023/01/29 04:49:45;;;;;;;4.53;3.57;;;;;;;-3.12;100.00;101839.53;5027770;28;20210;-71
2023/01/29 04:52:21;;;;;;;7.63;3.90;;;;;;;-3.12;100.00;101839.53;5023418;28;20216;-71
2023/01/29 04:55:01;;;;;;;4.33;3.50;;;;;;;-3.12;100.00;101819.13;5027409;28;20929;-70
2023/01/29 04:57:33;;;;;;;4.10;3.47;;;;;;;-3.09;100.00;101819.28;5026099;28;20199;-71
2023/01/29 05:00:11;;;;;;;4.40;3.60;;;;;;;-3.10;100.00;101825.16;5021019;28;20207;-71
2023/01/29 05:02:42;;;;;;;7.00;3.60;;;;;;;-3.08;100.00;101827.78;5021893;28;20195;-71
2023/01/29 05:05:12;;;;;;;4.63;3.70;;;;;;;-3.08;100.00;101825.25;5021194;28;20302;-70
2023/01/29 05:07:39;;;;;;;4.03;3.63;;;;;;;-3.07;100.00;101834.66;5025037;28;20200;-70
2023/01/29 05:10:07;;;;;;;8.63;4.10;;;;;;;-3.07;100.00;101820.22;5031446;28;20200;-70
2023/01/29 05:12:37;;;;;;;5.87;4.10;;;;;;;-3.09;100.00;101814.16;5026881;28;20542;-71
2023/01/29 05:15:09;;;;;;;5.47;3.80;;;;;;;-3.07;100.00;101820.22;5025508;28;20462;-70
2023/01/29 05:17:35;;;;;;;5.33;3.93;;;;;;;-3.06;100.00;101823.63;5026831;28;20192;-71
2023/01/29 05:20:02;;;;;;;5.67;3.87;;;;;;;-3.03;100.00;101817.81;5028449;28;20219;-71
2023/01/29 05:22:31;;;;;;;4.50;3.50;;;;;;;-3.05;100.00;101821.16;5024626;28;20225;-71
2023/01/29 05:24:57;;;;;;;5.40;3.80;;;;;;;-3.05;100.00;101810.94;5017569;28;20219;-70
2023/01/29 05:30:14;;;;;;;5.40;3.70;;;;;;;-3.03;100.00;101808.47;5028993;28;20732;-70
2023/01/29 05:32:40;;;;;;;5.40;4.00;;;;;;;-3.02;100.00;101806.81;5026872;28;20224;-71
2023/01/29 05:35:07;;;;;;;6.17;4.10;;;;;;;-3.04;100.00;101806.75;5024271;28;20750;-71
2023/01/29 05:37:35;;;;;;;6.67;4.50;;;;;;;-3.01;100.00;101822.19;5019892;28;20200;-71
2023/01/29 05:40:02;;;;;;;5.83;3.77;;;;;;;-3.01;100.00;101813.66;5026383;28;20227;-70
2023/01/29 05:42:28;;;;;;;6.00;3.90;;;;;;;-3.00;100.00;101823.06;5019157;28;20203;-71
2023/01/29 05:44:55;;;;;;;5.50;4.23;;;;;;;-2.97;100.00;101821.56;5026091;28;20224;-71
2023/01/29 05:47:22;;;;;;;5.80;4.40;;;;;;;-2.98;100.00;101819.78;5024423;28;20191;-70
2023/01/29 05:49:48;;;;;;;5.83;3.97;;;;;;;-2.97;100.00;101821.56;5024576;28;20196;-70
2023/01/29 05:52:14;;;;;;;6.07;4.13;;;;;;;-2.94;100.00;101829.31;5024677;28;20327;-70
2023/01/29 05:54:42;;;;;;;7.10;4.30;;;;;;;-2.95;100.00;101835.25;5021850;28;20569;-71
2023/01/29 05:57:08;;;;;;;7.87;4.50;;;;;;;-2.94;100.00;101831.00;5019180;28;20675;-70
2023/01/29 05:59:35;;;;;;;5.93;3.97;;;;;;;-2.94;100.00;101846.31;5026213;28;20196;-70
2023/01/29 06:02:01;;;;;;;5.47;4.40;;;;;;;-2.93;100.00;101848.97;5021735;28;20222;-71
2023/01/29 06:04:27;;;;;;;4.90;3.60;;;;;;;-2.92;100.00;101850.72;5022299;28;20279;-70
2023/01/29 06:07:00;;;;;;;8.17;4.97;;;;;;;-2.91;100.00;101864.34;5038997;28;20242;-70
2023/01/29 06:12:59;;;;;;;7.33;4.47;;;;;;;-2.90;100.00;101854.22;5046476;28;20254;-69
2023/01/29 06:15:40;;;;;;;7.07;4.47;;;;;;;-2.87;100.00;101866.25;5046493;28;20219;-70
2023/01/29 06:25:43;;;;;;;7.80;5.13;;;;;;;-2.92;100.00;101858.38;5090971;27;20587;-71
2023/01/29 06:31:49;;;;;;;8.33;4.93;;;;;;;-2.92;100.00;101881.34;5073974;28;20575;-69
2023/01/29 06:37:54;;;;;;;8.27;5.20;;;;;;;-2.91;100.00;101874.56;5077002;28;20222;-72
2023/01/29 06:40:50;;;;;;;9.10;5.23;;;;;;;-2.95;100.00;101878.66;5051205;28;20230;-71
2023/01/29 06:43:17;;;;;;;8.83;4.63;;;;;;;-2.97;100.00;101881.91;5031183;28;20687;-71
2023/01/29 06:45:49;;;;;;;9.97;5.60;;;;;;;-3.01;100.00;101883.44;5042828;28;20269;-72
2023/01/29 06:48:15;;;;;;;9.50;5.13;;;;;;;-3.00;100.00;101892.84;5059074;28;20192;-71
2023/01/29 06:50:42;;;;;;;9.27;5.70;;;;;;;-2.99;100.00;101894.63;5057907;28;20995;-71
2023/01/29 06:53:08;;;;;;;9.60;5.60;;;;;;;-2.96;100.00;101896.44;5051978;28;20256;-69
2023/01/29 06:55:35;;;;;;;8.80;5.83;;;;;;;-2.96;100.00;101886.22;5062887;28;20234;-71
2023/01/29 06:58:06;;;;;;;8.73;5.70;;;;;;;-2.93;100.00;101879.59;5056524;28;20192;-71
2023/01/29 07:00:33;;;;;;;8.87;5.50;;;;;;;-2.90;100.00;101872.09;5062185;28;20563;-70
2023/01/29 07:03:00;;;;;;;8.87;5.93;;;;;;;-2.90;100.00;101874.63;5043274;28;20225;-70
2023/01/29 07:05:26;;;;;;;7.93;5.30;;;;;;;-2.87;100.00;101876.44;5050353;28;20219;-72
2023/01/29 07:07:53;;;;;;;8.00;5.73;;;;;;;-2.83;100.00;101883.47;5057599;28;20199;-73
2023/01/29 07:10:20;;;;;;;7.93;5.77;;;;;;;-2.80;100.00;101875.06;5059131;28;20319;-73
2023/01/29 07:12:46;;;;;;;11.87;6.50;;;;;;;-2.77;100.00;101883.75;5063874;28;20222;-69
2023/01/29 07:15:18;;;;;;;10.37;6.53;;;;;;;-2.75;100.00;101884.69;5061464;28;20238;-72
2023/01/29 07:17:45;;;;;;;11.00;6.07;;;;;;;-2.75;100.00;101883.84;5056782;28;20196;-69
2023/01/29 07:20:11;;;;;;;10.00;6.17;;;;;;;-2.70;100.00;101873.03;5056202;28;20211;-72
2023/01/29 07:22:38;;;;;;;9.23;6.33;;;;;;;-2.71;100.00;101867.84;5053450;28;20279;-70
2023/01/29 07:25:06;;;;;;;10.13;6.13;;;;;;;-2.74;100.00;101871.16;5051203;28;20227;-70
2023/01/29 07:27:33;;;;;;;10.10;6.30;;;;;;;-2.67;100.00;101878.28;5040297;28;20203;-71
2023/01/29 07:29:59;;;;;;;17.10;6.60;;;;;;;-2.64;100.00;101876.69;5042781;28;20231;-71
2023/01/29 07:32:28;;;;;;;10.13;6.40;;;;;;;-2.63;100.00;101874.22;5049565;28;20470;-70
2023/01/29 07:34:55;;;;;;;9.80;6.50;;;;;;;-2.64;100.00;101867.34;5039055;28;20216;-72
2023/01/29 07:37:21;;;;;;;9.90;6.53;;;;;;;-2.63;100.00;101852.91;5046579;28;20200;-70
2023/01/29 07:39:48;;;;;;;8.13;5.60;;;;;;;-2.58;100.00;101839.56;5025661;28;20235;-71
2023/01/29 07:42:14;;;;;;;9.53;6.03;;;;;;;-2.62;100.00;101847.00;5033740;28;20238;-71
2023/01/29 07:44:41;;;;;;;9.47;6.40;;;;;;;-2.55;100.00;101852.47;5031954;28;20219;-71
2023/01/29 07:47:08;;;;;;;10.47;6.17;;;;;;;-2.53;100.00;101838.09;5031099;28;20274;-69
2023/01/29 07:49:35;;;;;;;9.63;6.50;;;;;;;-2.52;100.00;101841.50;5050820;28;20661;-70
2023/01/29 07:52:02;;;;;;;13.63;6.60;;;;;;;-2.52;100.00;101851.72;5044344;28;20227;-69
2023/01/29 07:54:28;;;;;;;13.17;6.80;;;;;;;-2.50;100.00;101853.56;5033482;28;20208;-70
2023/01/29 07:56:55;;;;;;;10.73;6.77;;;;;;;-2.46;100.00;101841.81;5044289;28;20648;-72
2023/01/29 07:59:21;;;;;;;10.87;6.20;;;;;;;-2.45;100.00;101838.44;5038063;28;20586;-72
2023/01/29 08:01:48;;;;;;;11.13;5.77;;;;;;;-2.45;100.00;101846.09;5007177;28;20204;-71
2023/01/29 08:04:14;;;;;;;9.77;6.17;;;;;;;-2.42;100.00;101837.72;5001419;28;20247;-71
2023/01/29 08:06:43;;;;;;;14.10;6.37;;;;;;;-2.44;100.00;101842.75;5016284;28;20306;-71
2023/01/29 08:09:10;;;;;;;11.50;5.73;;;;;;;-2.44;100.00;101845.31;5004834;28;20670;-71
2023/01/29 08:11:37;;;;;;;11.80;6.73;;;;;;;-2.39;100.00;101838.75;5020439;28;20201;-71
2023/01/29 08:14:03;;;;;;;10.00;5.90;;;;;;;-2.38;100.00;101835.34;5017407;28;20196;-71
2023/01/29 08:16:29;;;;;;;11.67;6.40;;;;;;;-2.41;100.00;101844.56;5020505;28;20224;-71
2023/01/29 08:18:56;;;;;;;10.10;6.43;;;;;;;-2.41;100.00;101844.56;5019152;28;20203;-71
2023/01/29 08:21:22;;;;;;;11.13;6.90;;;;;;;-2.38;100.00;101830.25;5008824;28;20681;-71
2023/01/29 08:23:50;;;;;;;12.10;6.40;;;;;;;-2.37;100.00;101833.69;5024142;28;20346;-70
2023/01/29 08:26:17;;;;;;;12.13;6.40;;;;;;;-2.33;100.00;101830.47;5020372;28;20620;-71
2023/01/29 08:28:43;;;;;;;11.50;5.70;;;;;;;-2.34;100.00;101819.38;5019914;28;20196;-71
2023/01/29 08:31:13;;;;;;;10.27;6.63;;;;;;;-2.30;100.00;101817.84;5020499;28;20205;-71
2023/01/29 08:33:40;;;;;;;11.37;6.53;;;;;;;-2.28;100.00;101811.13;5019185;28;20287;-71
2023/01/29 08:36:08;;;;;;;12.00;6.30;;;;;;;-2.23;100.00;101812.22;5022140;28;20669;-71
2023/01/29 08:38:35;;;;;;;14.33;7.17;;;;;;;-2.22;100.00;101810.50;5014591;28;20251;-71
2023/01/29 08:41:03;;;;;;;9.70;5.97;;;;;;;-2.20;100.00;101806.34;5020402;28;20404;-72
2023/01/29 08:43:30;;;;;;;11.20;6.67;;;;;;;-2.15;100.00;101807.44;5026802;28;20296;-71
2023/01/29 08:45:56;;;;;;;12.17;6.90;;;;;;;-2.10;100.00;101821.28;5021516;28;20722;-71
2023/01/29 08:48:22;;;;;;;11.57;7.47;;;;;;;-2.11;100.00;101815.31;5023316;28;20558;-71
2023/01/29 08:50:49;;;;;;;13.50;7.33;;;;;;;-2.06;100.00;101815.50;5018150;28;20196;-70
2023/01/29 08:53:15;;;;;;;12.20;6.63;;;;;;;-2.10;100.00;101805.94;5021015;28;20192;-71
2023/01/29 08:55:42;;;;;;;10.03;6.50;;;;;;;-2.07;100.00;101810.34;5019802;28;20212;-70
2023/01/29 08:58:11;;;;;;;12.17;7.27;;;;;;;-2.08;100.00;101803.47;5017914;28;20224;-71
2023/01/29 09:00:38;;;;;;;12.23;7.67;;;;;;;-2.07;100.00;101795.88;5021001;28;20215;-71
2023/01/29 09:03:06;;;;;;;10.90;6.50;;;;;;;-2.04;100.00;101796.00;5018728;28;20522;-71
2023/01/29 09:05:34;;;;;;;11.10;7.20;;;;;;;-1.96;100.00;101786.13;5020141;28;20723;-71
2023/01/29 09:08:00;;;;;;;11.13;5.97;;;;;;;-1.89;100.00;101793.25;5024293;28;20271;-71
2023/01/29 09:10:26;;;;;;;12.37;7.30;;;;;;;-1.91;100.00;101790.63;5019764;28;20557;-71
2023/01/29 09:12:54;;;;;;;10.67;6.30;;;;;;;-1.88;100.00;101799.22;5021003;28;20703;-71
2023/01/29 09:15:21;;;;;;;10.27;5.97;;;;;;;-1.86;100.00;101797.63;5020013;28;20230;-71
2023/01/29 09:17:48;;;;;;;13.37;7.27;;;;;;;-1.84;100.00;101798.56;5024936;28;20474;-71
2023/01/29 09:20:16;;;;;;;10.43;6.73;;;;;;;-1.80;100.00;101796.19;5019303;28;20200;-71
2023/01/29 09:22:43;;;;;;;13.43;7.43;;;;;;;-1.74;100.00;101800.72;5018893;28;20192;-71
2023/01/29 09:25:10;;;;;;;11.07;6.53;;;;;;;-1.74;100.00;101795.59;5020305;28;20247;-71
2023/01/29 09:27:36;;;;;;;10.33;6.63;;;;;;;-1.72;100.00;101793.97;5018865;28;20196;-71
2023/01/29 09:30:03;;;;;;;13.47;6.60;;;;;;;-1.72;100.00;101793.97;5019923;28;20207;-71
2023/01/29 09:32:31;;;;;;;12.37;6.57;;;;;;;-1.66;100.00;101786.56;5023956;28;20468;-71
2023/01/29 09:34:58;;;;;;;13.93;6.93;;;;;;;-1.68;100.00;101792.41;5017184;28;20310;-71
2023/01/29 09:37:25;;;;;;;12.97;6.73;;;;;;;-1.65;100.00;101787.41;5004064;28;20203;-71
2023/01/29 09:39:51;;;;;;;12.47;6.83;;;;;;;-1.61;100.00;101787.63;5016263;28;20509;-71
2023/01/29 09:42:24;;;;;;;9.27;6.37;;;;;;;-1.63;100.00;101790.94;5024341;28;20287;-70
2023/01/29 09:44:58;;;;;;;11.60;6.87;;;;;;;-1.64;100.00;101791.72;5015054;28;20354;-71
2023/01/29 09:47:26;;;;;;;12.97;6.37;;;;;;;-1.68;100.00;101792.41;5014051;28;20202;-71
2023/01/29 09:50:00;;;;;;;11.97;7.57;;;;;;;-1.67;100.00;101792.50;5020890;28;20207;-71
2023/01/29 09:52:33;;;;;;;13.10;7.33;;;;;;;-1.66;100.00;101788.25;5018622;28;20546;-70
2023/01/29 09:55:07;;;;;;;11.37;7.17;;;;;;;-1.65;100.00;101788.31;5023901;28;20235;-71
2023/01/29 09:57:40;;;;;;;12.53;7.63;;;;;;;-1.62;100.00;101787.56;5019471;28;20200;-71
2023/01/29 10:00:14;;;;;;;14.33;7.80;;;;;;;-1.59;100.00;101785.13;5020196;28;20287;-71
2023/01/29 10:02:57;;;;;;;12.40;7.43;;;;;;;-1.66;100.00;101786.56;5018403;28;20242;-71
2023/01/29 10:05:45;;;;;;;15.03;7.00;;;;;;;-1.63;100.00;101780.72;5021307;28;20250;-71
2023/01/29 10:08:41;;;;;;;13.87;7.63;;;;;;;-1.61;100.00;101774.84;5021969;28;20204;-70
2023/01/29 10:11:17;;;;;;;10.03;7.03;;;;;;;-1.63;100.00;101765.38;5024772;28;20700;-70
2023/01/29 10:13:52;;;;;;;11.17;7.10;;;;;;;-1.65;100.00;101772.97;5018640;28;20192;-70
2023/01/29 10:16:31;;;;;;;10.03;6.77;;;;;;;-1.65;100.00;101761.84;5024614;28;20219;-70
2023/01/29 10:19:15;;;;;;;11.60;7.40;;;;;;;-1.65;100.00;101756.72;5021592;28;20187;-70
2023/01/29 10:21:57;;;;;;;34.03;15.87;;;;;;;-1.59;100.00;101752.75;5019484;28;20257;-70
2023/01/29 10:24:36;;;;;;;15.13;9.20;;;;;;;-1.65;100.00;101749.94;5020970;28;20605;-70
2023/01/29 10:27:11;;;;;;;15.27;7.90;;;;;;;-1.61;100.00;101745.84;5018599;28;20203;-71
2023/01/29 10:29:41;;;;;;;13.23;7.70;;;;;;;-1.64;100.00;101746.56;5018595;28;20279;-70
2023/01/29 10:32:11;;;;;;;11.90;7.47;;;;;;;-1.62;100.00;101744.97;5024217;28;20271;-70
2023/01/29 10:34:43;;;;;;;13.80;8.10;;;;;;;-1.57;100.00;101730.66;5021012;28;20188;-70
2023/01/29 10:37:17;;;;;;;13.77;7.07;;;;;;;-1.55;100.00;101723.94;5018505;28;20199;-70
2023/01/29 10:39:44;;;;;;;10.43;7.27;;;;;;;-1.49;100.00;101719.91;5020881;28;20193;-70
2023/01/29 10:42:19;;;;;;;13.03;7.80;;;;;;;-1.49;100.00;101714.78;5014895;28;20335;-70
2023/01/29 10:45:09;;;;;;;11.20;7.00;;;;;;;-1.50;100.00;101713.00;5024364;28;20621;-70
2023/01/29 10:48:03;;;;;;;13.37;7.80;;;;;;;-1.46;100.00;101699.53;5016230;28;20588;-70
2023/01/29 10:50:43;;;;;;;11.43;6.67;;;;;;;-1.43;100.00;101703.06;5017935;28;20200;-72
2023/01/29 10:53:27;;;;;;;13.93;6.70;;;;;;;-1.43;100.00;101705.63;5021256;28;20756;-73
2023/01/29 10:56:04;;;;;;;12.13;7.30;;;;;;;-1.42;100.00;101693.75;5018595;28;20243;-72
2023/01/29 10:58:37;;;;;;;15.40;7.47;;;;;;;-1.45;100.00;101691.91;5019246;28;20568;-73
2023/01/29 11:01:04;;;;;;;13.50;6.47;;;;;;;-1.50;100.00;101697.66;5023005;28;20199;-73
2023/01/29 11:03:34;;;;;;;10.80;7.00;;;;;;;-1.51;100.00;101689.13;5022079;28;20665;-73
2023/01/29 11:06:10;;;;;;;10.60;6.77;;;;;;;-1.54;100.00;101689.88;5026822;28;20585;-73
2023/01/29 11:08:43;;;;;;;10.23;6.83;;;;;;;-1.50;100.00;101698.53;5024500;28;20564;-73
2023/01/29 11:11:13;;;;;;;12.20;7.03;;;;;;;-1.48;100.00;101699.47;5023278;28;20542;-72
2023/01/29 11:13:44;;;;;;;11.73;7.03;;;;;;;-1.44;100.00;101696.22;5021894;28;20215;-73
2023/01/29 11:16:11;;;;;;;12.27;8.03;;;;;;;-1.41;100.00;101698.03;5024471;28;20215;-73
2023/01/29 11:18:55;;;;;;;10.63;7.30;;;;;;;-1.33;100.00;101701.78;5024449;28;20203;-74
2023/01/29 11:21:23;;;;;;;15.30;7.33;;;;;;;-1.23;100.00;101701.34;5019984;28;20745;-73
2023/01/29 11:23:51;;;;;;;12.97;7.63;;;;;;;-1.20;100.00;101703.13;5006497;28;20465;-73
2023/01/29 11:26:21;;;;;;;11.87;7.00;;;;;;;-1.13;100.00;101697.44;5022272;28;20704;-73
2023/01/29 11:28:49;;;;;;;17.30;7.50;;;;;;;-1.14;100.00;101693.13;5026603;28;20245;-73
2023/01/29 11:31:19;;;;;;;14.00;7.90;;;;;;;-1.10;100.00;101681.34;5025777;28;20196;-72
2023/01/29 11:33:46;;;;;;;13.90;7.67;;;;;;;-1.09;100.00;101675.38;5026198;28;20287;-73
2023/01/29 11:36:32;;;;;;;13.37;7.63;;;;;;;-1.05;100.00;101677.25;5029745;28;20320;-73
2023/01/29 11:39:14;;;;;;;12.73;8.17;;;;;;;-1.03;100.00;101661.13;5027384;28;20202;-73
2023/01/29 11:41:49;;;;;;;12.33;7.43;;;;;;;-0.96;100.00;101652.00;5024640;28;20649;-73
2023/01/29 11:44:21;;;;;;;12.03;7.30;;;;;;;-0.88;100.00;101645.50;5007890;28;20261;-73
2023/01/29 11:46:49;;;;;;;11.47;6.90;;;;;;;-0.78;100.00;101639.84;5026820;28;20234;-74
2023/01/29 11:49:24;;;;;;;15.73;6.73;;;;;;;-0.75;100.00;101644.25;5029135;28;20223;-73
2023/01/29 11:51:54;;;;;;;13.43;7.80;;;;;;;-0.72;100.00;101646.03;5021971;28;20199;-73
2023/01/29 11:54:28;;;;;;;11.43;7.60;;;;;;;-0.67;100.00;101650.53;5012946;28;20212;-71
2023/01/29 11:56:56;;;;;;;10.30;6.90;;;;;;;-0.65;100.00;101638.63;5025701;28;20198;-69
2023/01/29 11:59:34;;;;;;;11.30;6.90;;;;;;;-0.65;100.00;101635.19;5036826;28;20207;-69
2023/01/29 12:02:12;;;;;;;10.37;7.07;;;;;;;-0.57;100.00;101638.91;5019617;28;20196;-71
2023/01/29 12:04:39;;;;;;;11.03;6.90;;;;;;;-0.64;100.00;101626.69;5019554;28;20334;-70
2023/01/29 12:07:13;;;;;;;12.20;6.50;;;;;;;-0.66;100.00;101625.78;5012372;23;20261;-79
2023/01/29 12:09:41;;;;;;;11.20;6.70;;;;;;;-0.56;100.00;101627.84;4979407;28;20741;-79
2023/01/29 12:12:27;;;;;;;9.73;6.17;;;;;;;-0.55;100.00;101631.28;4978193;28;20218;-79
2023/01/29 12:15:03;;;;;;;10.33;6.77;;;;;;;-0.48;100.00;101628.09;4978313;28;20549;-79
2023/01/29 12:17:33;;;;;;;11.37;6.20;;;;;;;-0.46;100.00;101621.34;4978273;28;20416;-79